sensor_id;sensor_type;location;lat;lon;timestamp;pressure;altitude;pressure_sealevel;temperature;humidity
3206;BME280;1615;53.602;11.418;2023-12-20T00:00:58;100451.72;;;8.68;100.00
3206;BME280;1615;53.602;11.418;2023-12-20T00:03:24;100444.72;;;8.57;100.00
3206;BME280;1615;53.602;11.418;2023-12-20T00:05:49;100517.63;;;8.90;100.00
3206;BME280;1615;53.602;11.418;2023-12-20T00:08:15;100505.09;;;8.89;100.00
3206;BME280;1615;53.602;11.418;2023-12-20T00:10:40;100482.78;;;8.77;100.00
3206;BME280;1615;53.602;11.418;2023-12-20T00:13:07;100498.88;;;8.83;100.00
3206;BME280;1615;53.602;11.418;2023-12-20T00:15:33;100491.91;;;8.67;100.00
3206;BME280;1615;53.602;11.418;2023-12-20T00:17:58;100501.41;;;8.75;100.00
3206;BME280;1615;53.602;11.418;2023-12-20T00:20:24;100474.75;;;8.62;100.00
3206;BME280;1615;53.602;11.418;2023-12-20T00:22:49;100465.28;;;8.49;100.00
3206;BME280;1615;53.602;11.418;2023-12-20T00:25:14;100484.59;;;8.58;100.00
3206;BME280;1615;53.602;11.418;2023-12-20T00:27:40;100501.47;;;8.70;100.00
3206;BME280;1615;53.602;11.418;2023-12-20T00:30:05;100498.13;;;8.73;100.00
3206;BME280;1615;53.602;11.418;2023-12-20T00:32:31;100368.78;;;7.97;100.00
3206;BME280;1615;53.602;11.418;2023-12-20T00:34:56;100399.81;;;8.11;100.00
3206;BME280;1615;53.602;11.418;2023-12-20T00:37:21;100334.16;;;7.64;100.00
3206;BME280;1615;53.602;11.418;2023-12-20T00:39:47;100496.03;;;8.65;100.00
3206;BME280;1615;53.602;11.418;2023-12-20T00:42:13;100482.41;;;8.60;100.00
3206;BME280;1615;53.602;11.418;2023-12-20T00:44:38;100461.41;;;8.27;100.00
3206;BME280;1615;53.602;11.418;2023-12-20T00:47:03;100488.13;;;8.63;100.00
3206;BME280;1615;53.602;11.418;2023-12-20T00:49:29;100448.19;;;8.39;100.00
3206;BME280;1615;53.602;11.418;2023-12-20T00:51:54;100387.63;;;7.98;100.00
3206;BME280;1615;53.602;11.418;2023-12-20T00:54:19;100502.06;;;8.62;100.00
3206;BME280;1615;53.602;11.418;2023-12-20T00:56:45;100469.44;;;8.42;100.00
3206;BME280;1615;53.602;11.418;2023-12-20T00:59:10;100419.47;;;8.08;100.00
3206;BME280;1615;53.602;11.418;2023-12-20T01:01:36;100402.06;;;7.99;100.00
3206;BME280;1615;53.602;11.418;2023-12-20T01:04:01;100386.97;;;7.73;100.00
3206;BME280;1615;53.602;11.418;2023-12-20T01:06:26;100495.06;;;8.51;100.00
3206;BME280;1615;53.602;11.418;2023-12-20T01:08:51;100495.38;;;8.44;100.00
3206;BME280;1615;53.602;11.418;2023-12-20T01:11:17;100479.69;;;8.26;100.00
3206;BME280;1615;53.602;11.418;2023-12-20T01:13:42;100477.19;;;8.30;100.00
3206;BME280;1615;53.602;11.418;2023-12-20T01:16:10;100494.63;;;8.39;100.00
3206;BME280;1615;53.602;11.418;2023-12-20T01:18:36;100459.81;;;8.16;100.00
3206;BME280;1615;53.602;11.418;2023-12-20T01:21:02;100396.47;;;7.80;100.00
3206;BME280;1615;53.602;11.418;2023-12-20T01:23:28;100499.06;;;8.30;100.00
3206;BME280;1615;53.602;11.418;2023-12-20T01:25:53;100394.91;;;7.69;100.00
3206;BME280;1615;53.602;11.418;2023-12-20T01:28:19;100473.50;;;8.11;100.00
3206;BME280;1615;53.602;11.418;2023-12-20T01:30:44;100418.06;;;7.77;100.00
3206;BME280;1615;53.602;11.418;2023-12-20T01:33:10;100494.22;;;8.17;100.00
3206;BME280;1615;53.602;11.418;2023-12-20T01:35:35;100494.72;;;8.19;100.00
3206;BME280;1615;53.602;11.418;2023-12-20T01:38:00;100456.63;;;8.04;100.00
3206;BME280;1615;53.602;11.418;2023-12-20T01:40:25;100497.53;;;8.09;100.00
3206;BME280;1615;53.602;11.418;2023-12-20T01:42:58;100399.66;;;7.54;100.00
3206;BME280;1615;53.602;11.418;2023-12-20T01:45:24;100479.56;;;8.03;100.00
3206;BME280;1615;53.602;11.418;2023-12-20T01:47:50;100394.25;;;7.49;100.00
3206;BME280;1615;53.602;11.418;2023-12-20T01:50:15;100464.25;;;8.07;100.00
3206;BME280;1615;53.602;11.418;2023-12-20T01:52:42;100459.19;;;7.85;100.00
3206;BME280;1615;53.602;11.418;2023-12-20T01:55:08;100468.13;;;8.01;100.00
3206;BME280;1615;53.602;11.418;2023-12-20T01:57:39;100449.13;;;7.86;100.00
3206;BME280;1615;53.602;11.418;2023-12-20T02:00:06;100475.47;;;8.00;100.00
3206;BME280;1615;53.602;11.418;2023-12-20T02:02:32;100476.81;;;8.03;100.00
3206;BME280;1615;53.602;11.418;2023-12-20T02:04:58;100444.72;;;7.90;100.00
3206;BME280;1615;53.602;11.418;2023-12-20T02:07:23;100469.16;;;8.05;100.00
3206;BME280;1615;53.602;11.418;2023-12-20T02:09:50;100447.94;;;7.97;100.00
3206;BME280;1615;53.602;11.418;2023-12-20T02:12:15;100380.28;;;7.60;100.00
3206;BME280;1615;53.602;11.418;2023-12-20T02:14:40;100466.34;;;8.20;100.00
3206;BME280;1615;53.602;11.418;2023-12-20T02:17:06;100435.84;;;8.08;100.00
3206;BME280;1615;53.602;11.418;2023-12-20T02:19:31;100390.16;;;7.90;100.00
3206;BME280;1615;53.602;11.418;2023-12-20T02:22:10;100446.06;;;8.31;100.00
3206;BME280;1615;53.602;11.418;2023-12-20T02:24:36;100434.66;;;8.24;100.00
3206;BME280;1615;53.602;11.418;2023-12-20T02:27:01;100293.69;;;7.37;100.00
3206;BME280;1615;53.602;11.418;2023-12-20T02:29:27;100290.13;;;7.42;100.00
3206;BME280;1615;53.602;11.418;2023-12-20T02:31:52;100407.91;;;8.21;100.00
3206;BME280;1615;53.602;11.418;2023-12-20T02:34:17;100413.91;;;8.23;100.00
3206;BME280;1615;53.602;11.418;2023-12-20T02:36:42;100349.81;;;7.82;100.00
3206;BME280;1615;53.602;11.418;2023-12-20T02:39:08;100410.28;;;8.32;100.00
3206;BME280;1615;53.602;11.418;2023-12-20T02:41:33;100404.81;;;8.32;100.00
3206;BME280;1615;53.602;11.418;2023-12-20T02:43:58;100427.59;;;8.51;100.00
3206;BME280;1615;53.602;11.418;2023-12-20T02:46:24;100424.84;;;8.51;100.00
3206;BME280;1615;53.602;11.418;2023-12-20T02:48:49;100395.41;;;8.43;100.00
3206;BME280;1615;53.602;11.418;2023-12-20T02:51:14;100333.88;;;7.94;100.00
3206;BME280;1615;53.602;11.418;2023-12-20T02:53:40;100408.69;;;8.55;100.00
3206;BME280;1615;53.602;11.418;2023-12-20T02:56:05;100365.78;;;8.32;100.00
3206;BME280;1615;53.602;11.418;2023-12-20T02:58:31;100392.63;;;8.48;100.00
3206;BME280;1615;53.602;11.418;2023-12-20T03:00:56;100377.19;;;8.39;100.00
3206;BME280;1615;53.602;11.418;2023-12-20T03:03:21;100400.56;;;8.50;100.00
3206;BME280;1615;53.602;11.418;2023-12-20T03:05:46;100362.41;;;8.40;100.00
3206;BME280;1615;53.602;11.418;2023-12-20T03:08:12;100365.19;;;8.35;100.00
3206;BME280;1615;53.602;11.418;2023-12-20T03:10:37;100366.53;;;8.37;100.00
3206;BME280;1615;53.602;11.418;2023-12-20T03:13:02;100348.28;;;8.33;100.00
3206;BME280;1615;53.602;11.418;2023-12-20T03:15:28;100396.16;;;8.54;100.00
3206;BME280;1615;53.602;11.418;2023-12-20T03:17:55;100337.97;;;8.25;100.00
3206;BME280;1615;53.602;11.418;2023-12-20T03:20:21;100295.63;;;7.99;100.00
3206;BME280;1615;53.602;11.418;2023-12-20T03:22:46;100339.59;;;8.26;100.00
3206;BME280;1615;53.602;11.418;2023-12-20T03:25:11;100343.34;;;8.35;100.00
3206;BME280;1615;53.602;11.418;2023-12-20T03:27:37;100378.94;;;8.53;100.00
3206;BME280;1615;53.602;11.418;2023-12-20T03:30:06;100160.81;;;7.19;100.00
3206;BME280;1615;53.602;11.418;2023-12-20T03:32:32;100357.91;;;8.54;100.00
3206;BME280;1615;53.602;11.418;2023-12-20T03:34:57;100359.25;;;8.56;100.00
3206;BME280;1615;53.602;11.418;2023-12-20T03:37:23;100191.06;;;7.51;100.00
3206;BME280;1615;53.602;11.418;2023-12-20T03:39:48;100327.31;;;8.52;100.00
3206;BME280;1615;53.602;11.418;2023-12-20T03:42:13;100308.31;;;8.42;100.00
3206;BME280;1615;53.602;11.418;2023-12-20T03:44:39;100322.22;;;8.45;100.00
3206;BME280;1615;53.602;11.418;2023-12-20T03:47:05;100235.75;;;7.84;100.00
3206;BME280;1615;53.602;11.418;2023-12-20T03:49:31;100320.81;;;8.48;100.00
3206;BME280;1615;53.602;11.418;2023-12-20T03:51:56;100230.59;;;7.82;100.00
3206;BME280;1615;53.602;11.418;2023-12-20T03:54:21;100325.69;;;8.51;100.00
3206;BME280;1615;53.602;11.418;2023-12-20T03:56:47;100204.91;;;7.83;100.00
3206;BME280;1615;53.602;11.418;2023-12-20T03:59:12;100293.63;;;8.38;100.00
3206;BME280;1615;53.602;11.418;2023-12-20T04:01:37;100295.69;;;8.46;100.00
3206;BME280;1615;53.602;11.418;2023-12-20T04:04:03;100311.91;;;8.61;100.00
3206;BME280;1615;53.602;11.418;2023-12-20T04:06:28;100293.56;;;8.43;100.00
3206;BME280;1615;53.602;11.418;2023-12-20T04:08:53;100277.69;;;8.45;100.00
3206;BME280;1615;53.602;11.418;2023-12-20T04:11:18;100295.13;;;8.49;100.00
3206;BME280;1615;53.602;11.418;2023-12-20T04:13:44;100263.09;;;8.31;100.00
3206;BME280;1615;53.602;11.418;2023-12-20T04:16:09;100295.69;;;8.46;100.00
3206;BME280;1615;53.602;11.418;2023-12-20T04:18:34;100297.53;;;8.50;100.00
3206;BME280;1615;53.602;11.418;2023-12-20T04:21:00;100299.44;;;8.55;100.00
3206;BME280;1615;53.602;11.418;2023-12-20T04:23:25;100285.81;;;8.50;100.00
3206;BME280;1615;53.602;11.418;2023-12-20T04:25:50;100293.38;;;8.58;100.00
3206;BME280;1615;53.602;11.418;2023-12-20T04:28:15;100256.94;;;8.44;100.00
3206;BME280;1615;53.602;11.418;2023-12-20T04:30:41;100258.63;;;8.40;100.00
3206;BME280;1615;53.602;11.418;2023-12-20T04:33:07;100237.19;;;8.28;100.00
3206;BME280;1615;53.602;11.418;2023-12-20T04:35:32;100271.06;;;8.51;100.00
3206;BME280;1615;53.602;11.418;2023-12-20T04:37:57;100276.06;;;8.44;100.00
3206;BME280;1615;53.602;11.418;2023-12-20T04:40:23;100235.56;;;8.27;100.00
3206;BME280;1615;53.602;11.418;2023-12-20T04:42:48;100171.47;;;7.96;100.00
3206;BME280;1615;53.602;11.418;2023-12-20T04:45:13;100279.19;;;8.56;100.00
3206;BME280;1615;53.602;11.418;2023-12-20T04:47:41;100273.16;;;8.59;100.00
3206;BME280;1615;53.602;11.418;2023-12-20T04:50:07;100270.94;;;8.61;100.00
3206;BME280;1615;53.602;11.418;2023-12-20T04:52:33;100166.38;;;7.90;100.00
3206;BME280;1615;53.602;11.418;2023-12-20T04:54:58;100175.53;;;7.99;100.00
3206;BME280;1615;53.602;11.418;2023-12-20T04:57:24;100255.78;;;8.50;100.00
3206;BME280;1615;53.602;11.418;2023-12-20T04:59:49;100260.06;;;8.56;100.00
3206;BME280;1615;53.602;11.418;2023-12-20T05:02:15;100237.91;;;8.39;100.00
3206;BME280;1615;53.602;11.418;2023-12-20T05:04:40;100109.38;;;7.65;100.00
3206;BME280;1615;53.602;11.418;2023-12-20T05:07:06;100250.94;;;8.42;100.00
3206;BME280;1615;53.602;11.418;2023-12-20T05:09:32;100208.03;;;8.24;100.00
3206;BME280;1615;53.602;11.418;2023-12-20T05:11:57;100115.88;;;7.69;100.00
3206;BME280;1615;53.602;11.418;2023-12-20T05:14:22;100226.97;;;8.39;100.00
3206;BME280;1615;53.602;11.418;2023-12-20T05:16:48;100227.41;;;8.46;100.00
3206;BME280;1615;53.602;11.418;2023-12-20T05:19:13;100241.53;;;8.53;100.00
3206;BME280;1615;53.602;11.418;2023-12-20T05:21:39;100152.69;;;7.95;100.00
3206;BME280;1615;53.602;11.418;2023-12-20T05:24:05;100238.88;;;8.48;100.00
3206;BME280;1615;53.602;11.418;2023-12-20T05:26:30;100229.09;;;8.42;100.00
3206;BME280;1615;53.602;11.418;2023-12-20T05:28:55;100234.97;;;8.54;100.00
3206;BME280;1615;53.602;11.418;2023-12-20T05:31:21;100204.13;;;8.30;100.00
3206;BME280;1615;53.602;11.418;2023-12-20T05:33:46;100140.13;;;7.94;100.00
3206;BME280;1615;53.602;11.418;2023-12-20T05:36:11;100201.63;;;8.33;100.00
3206;BME280;1615;53.602;11.418;2023-12-20T05:38:38;100253.38;;;8.67;100.00
3206;BME280;1615;53.602;11.418;2023-12-20T05:41:04;100232.69;;;8.61;100.00
3206;BME280;1615;53.602;11.418;2023-12-20T05:43:30;100243.56;;;8.66;100.00
3206;BME280;1615;53.602;11.418;2023-12-20T05:45:55;100156.47;;;8.17;100.00
3206;BME280;1615;53.602;11.418;2023-12-20T05:48:20;100194.34;;;8.47;100.00
3206;BME280;1615;53.602;11.418;2023-12-20T05:50:45;100248.88;;;8.76;100.00
3206;BME280;1615;53.602;11.418;2023-12-20T05:53:11;100205.50;;;8.51;100.00
3206;BME280;1615;53.602;11.418;2023-12-20T05:55:36;100229.19;;;8.55;100.00
3206;BME280;1615;53.602;11.418;2023-12-20T05:58:01;100205.56;;;8.46;100.00
3206;BME280;1615;53.602;11.418;2023-12-20T06:00:27;100149.28;;;8.26;100.00
3206;BME280;1615;53.602;11.418;2023-12-20T06:02:52;100202.13;;;8.59;100.00
3206;BME280;1615;53.602;11.418;2023-12-20T06:05:17;100225.09;;;8.76;100.00
3206;BME280;1615;53.602;11.418;2023-12-20T06:07:43;100194.31;;;8.71;100.00
3206;BME280;1615;53.602;11.418;2023-12-20T06:10:10;100217.44;;;8.78;100.00
3206;BME280;1615;53.602;11.418;2023-12-20T06:12:35;100182.94;;;8.64;100.00
3206;BME280;1615;53.602;11.418;2023-12-20T06:15:01;100100.53;;;8.15;100.00
3206;BME280;1615;53.602;11.418;2023-12-20T06:17:27;100121.16;;;8.26;100.00
3206;BME280;1615;53.602;11.418;2023-12-20T06:19:55;100153.88;;;8.49;100.00
3206;BME280;1615;53.602;11.418;2023-12-20T06:22:20;100076.72;;;8.02;100.00
3206;BME280;1615;53.602;11.418;2023-12-20T06:24:45;100148.81;;;8.43;100.00
3206;BME280;1615;53.602;11.418;2023-12-20T06:27:11;100213.94;;;8.73;100.00
3206;BME280;1615;53.602;11.418;2023-12-20T06:29:36;99972.78;;;7.38;100.00
3206;BME280;1615;53.602;11.418;2023-12-20T06:32:02;100172.00;;;8.64;100.00
3206;BME280;1615;53.602;11.418;2023-12-20T06:34:27;100185.81;;;8.72;100.00
3206;BME280;1615;53.602;11.418;2023-12-20T06:36:52;100171.34;;;8.72;100.00
3206;BME280;1615;53.602;11.418;2023-12-20T06:39:17;100129.22;;;8.54;100.00
3206;BME280;1615;53.602;11.418;2023-12-20T06:41:43;100167.56;;;8.68;100.00
3206;BME280;1615;53.602;11.418;2023-12-20T06:44:08;100147.41;;;8.64;100.00
3206;BME280;1615;53.602;11.418;2023-12-20T06:46:34;100149.31;;;8.63;100.00
3206;BME280;1615;53.602;11.418;2023-12-20T06:48:59;100033.19;;;7.92;100.00
3206;BME280;1615;53.602;11.418;2023-12-20T06:51:24;100139.94;;;8.51;100.00
3206;BME280;1615;53.602;11.418;2023-12-20T06:53:51;100164.81;;;8.68;100.00
3206;BME280;1615;53.602;11.418;2023-12-20T06:56:17;100131.16;;;8.54;100.00
3206;BME280;1615;53.602;11.418;2023-12-20T06:58:42;100122.66;;;8.37;100.00
3206;BME280;1615;53.602;11.418;2023-12-20T07:01:15;100160.53;;;8.62;100.00
3206;BME280;1615;53.602;11.418;2023-12-20T07:03:40;100134.91;;;8.58;100.00
3206;BME280;1615;53.602;11.418;2023-12-20T07:06:06;100149.81;;;8.47;100.00
3206;BME280;1615;53.602;11.418;2023-12-20T07:08:31;99957.00;;;7.35;100.00
3206;BME280;1615;53.602;11.418;2023-12-20T07:10:56;100080.41;;;8.11;100.00
3206;BME280;1615;53.602;11.418;2023-12-20T07:13:22;100176.72;;;8.58;100.00
3206;BME280;1615;53.602;11.418;2023-12-20T07:15:48;100159.66;;;8.66;100.00
3206;BME280;1615;53.602;11.418;2023-12-20T07:18:13;100140.31;;;8.44;100.00
3206;BME280;1615;53.602;11.418;2023-12-20T07:20:39;100123.56;;;8.51;100.00
3206;BME280;1615;53.602;11.418;2023-12-20T07:23:04;100111.59;;;8.47;100.00
3206;BME280;1615;53.602;11.418;2023-12-20T07:25:32;100105.69;;;8.40;100.00
3206;BME280;1615;53.602;11.418;2023-12-20T07:27:58;100151.78;;;8.65;100.00
3206;BME280;1615;53.602;11.418;2023-12-20T07:30:23;100150.28;;;8.54;100.00
3206;BME280;1615;53.602;11.418;2023-12-20T07:32:49;100150.38;;;8.67;100.00
3206;BME280;1615;53.602;11.418;2023-12-20T07:35:15;100026.59;;;7.93;100.00
3206;BME280;1615;53.602;11.418;2023-12-20T07:37:40;100112.63;;;8.51;100.00
3206;BME280;1615;53.602;11.418;2023-12-20T07:40:06;100120.25;;;8.54;100.00
3206;BME280;1615;53.602;11.418;2023-12-20T07:42:32;100138.97;;;8.60;100.00
3206;BME280;1615;53.602;11.418;2023-12-20T07:44:58;100133.91;;;8.54;100.00
3206;BME280;1615;53.602;11.418;2023-12-20T07:47:23;100077.50;;;8.02;100.00
3206;BME280;1615;53.602;11.418;2023-12-20T07:49:50;100159.25;;;8.36;100.00
3206;BME280;1615;53.602;11.418;2023-12-20T07:52:17;100047.00;;;7.77;100.00
3206;BME280;1615;53.602;11.418;2023-12-20T07:54:42;100112.00;;;8.17;100.00
3206;BME280;1615;53.602;11.418;2023-12-20T07:57:07;100141.31;;;8.30;100.00
3206;BME280;1615;53.602;11.418;2023-12-20T07:59:33;100144.59;;;8.32;100.00
3206;BME280;1615;53.602;11.418;2023-12-20T08:01:58;99986.03;;;7.26;100.00
3206;BME280;1615;53.602;11.418;2023-12-20T08:04:23;100125.72;;;8.12;100.00
3206;BME280;1615;53.602;11.418;2023-12-20T08:06:50;100139.88;;;8.37;100.00
3206;BME280;1615;53.602;11.418;2023-12-20T08:09:15;100127.69;;;8.30;100.00
3206;BME280;1615;53.602;11.418;2023-12-20T08:11:48;100117.34;;;8.27;100.00
3206;BME280;1615;53.602;11.418;2023-12-20T08:14:13;100141.13;;;8.45;100.00
3206;BME280;1615;53.602;11.418;2023-12-20T08:16:39;100147.50;;;8.59;100.00
3206;BME280;1615;53.602;11.418;2023-12-20T08:19:04;100061.66;;;8.04;100.00
3206;BME280;1615;53.602;11.418;2023-12-20T08:21:29;100142.38;;;8.71;100.00
3206;BME280;1615;53.602;11.418;2023-12-20T08:23:55;100127.31;;;8.73;100.00
3206;BME280;1615;53.602;11.418;2023-12-20T08:26:20;100014.00;;;7.97;100.00
3206;BME280;1615;53.602;11.418;2023-12-20T08:28:49;100114.28;;;8.84;100.00
3206;BME280;1615;53.602;11.418;2023-12-20T08:31:16;100009.31;;;8.21;100.00
3206;BME280;1615;53.602;11.418;2023-12-20T08:33:43;100116.38;;;8.92;100.00
3206;BME280;1615;53.602;11.418;2023-12-20T08:36:09;100082.84;;;8.68;100.00
3206;BME280;1615;53.602;11.418;2023-12-20T08:38:34;100105.66;;;8.95;100.00
3206;BME280;1615;53.602;11.418;2023-12-20T08:41:00;100003.59;;;8.36;100.00
3206;BME280;1615;53.602;11.418;2023-12-20T08:43:26;100106.59;;;9.04;100.00
3206;BME280;1615;53.602;11.418;2023-12-20T08:45:51;99997.44;;;8.30;100.00
3206;BME280;1615;53.602;11.418;2023-12-20T08:48:17;100051.19;;;8.67;100.00
3206;BME280;1615;53.602;11.418;2023-12-20T08:50:42;100036.41;;;8.68;100.00
3206;BME280;1615;53.602;11.418;2023-12-20T08:53:08;100055.91;;;8.80;100.00
3206;BME280;1615;53.602;11.418;2023-12-20T08:55:34;100056.56;;;8.72;100.00
3206;BME280;1615;53.602;11.418;2023-12-20T08:57:59;100091.06;;;9.00;100.00
3206;BME280;1615;53.602;11.418;2023-12-20T09:00:24;100063.41;;;8.88;100.00
3206;BME280;1615;53.602;11.418;2023-12-20T09:02:52;100068.56;;;8.89;100.00
3206;BME280;1615;53.602;11.418;2023-12-20T09:05:18;100068.03;;;8.87;100.00
3206;BME280;1615;53.602;11.418;2023-12-20T09:07:43;100060.59;;;8.93;100.00
3206;BME280;1615;53.602;11.418;2023-12-20T09:10:11;100022.25;;;8.66;100.00
3206;BME280;1615;53.602;11.418;2023-12-20T09:12:37;100019.44;;;8.71;100.00
3206;BME280;1615;53.602;11.418;2023-12-20T09:15:06;99965.16;;;8.32;100.00
3206;BME280;1615;53.602;11.418;2023-12-20T09:17:31;100049.94;;;8.91;100.00
3206;BME280;1615;53.602;11.418;2023-12-20T09:19:56;99839.34;;;7.65;100.00
3206;BME280;1615;53.602;11.418;2023-12-20T09:22:22;100031.63;;;8.92;100.00
3206;BME280;1615;53.602;11.418;2023-12-20T09:24:48;100043.94;;;9.08;100.00
3206;BME280;1615;53.602;11.418;2023-12-20T09:27:13;100017.88;;;8.97;100.00
3206;BME280;1615;53.602;11.418;2023-12-20T09:29:39;100019.28;;;8.94;100.00
3206;BME280;1615;53.602;11.418;2023-12-20T09:32:04;100024.38;;;9.14;100.00
3206;BME280;1615;53.602;11.418;2023-12-20T09:34:29;100022.06;;;9.08;100.00
3206;BME280;1615;53.602;11.418;2023-12-20T09:36:55;99993.19;;;9.02;100.00
3206;BME280;1615;53.602;11.418;2023-12-20T09:39:20;100018.41;;;9.26;100.00
3206;BME280;1615;53.602;11.418;2023-12-20T09:42:00;100004.53;;;9.22;100.00
3206;BME280;1615;53.602;11.418;2023-12-20T09:44:26;99988.63;;;9.11;100.00
3206;BME280;1615;53.602;11.418;2023-12-20T09:46:52;99998.25;;;9.22;100.00
3206;BME280;1615;53.602;11.418;2023-12-20T09:49:19;99903.84;;;8.57;100.00
3206;BME280;1615;53.602;11.418;2023-12-20T09:51:46;99995.91;;;9.02;100.00
3206;BME280;1615;53.602;11.418;2023-12-20T09:54:14;99975.34;;;8.91;100.00
3206;BME280;1615;53.602;11.418;2023-12-20T09:56:39;99894.06;;;8.24;100.00
3206;BME280;1615;53.602;11.418;2023-12-20T09:59:04;100004.13;;;9.02;100.00
3206;BME280;1615;53.602;11.418;2023-12-20T10:01:31;99989.13;;;8.99;100.00
3206;BME280;1615;53.602;11.418;2023-12-20T10:03:57;99767.47;;;7.56;100.00
3206;BME280;1615;53.602;11.418;2023-12-20T10:06:24;99914.94;;;8.47;100.00
3206;BME280;1615;53.602;11.418;2023-12-20T10:08:49;99998.84;;;8.92;100.00
3206;BME280;1615;53.602;11.418;2023-12-20T10:11:14;99983.13;;;8.84;100.00
3206;BME280;1615;53.602;11.418;2023-12-20T10:13:41;99984.63;;;8.90;100.00
3206;BME280;1615;53.602;11.418;2023-12-20T10:16:07;99937.66;;;8.61;100.00
3206;BME280;1615;53.602;11.418;2023-12-20T10:18:35;99893.06;;;8.33;100.00
3206;BME280;1615;53.602;11.418;2023-12-20T10:21:01;99985.03;;;8.70;100.00
3206;BME280;1615;53.602;11.418;2023-12-20T10:23:26;99963.16;;;8.70;100.00
3206;BME280;1615;53.602;11.418;2023-12-20T10:26:01;99978.03;;;8.64;100.00
3206;BME280;1615;53.602;11.418;2023-12-20T10:28:26;99935.19;;;8.46;100.00
3206;BME280;1615;53.602;11.418;2023-12-20T10:30:55;99997.16;;;8.64;100.00
3206;BME280;1615;53.602;11.418;2023-12-20T10:33:25;99964.25;;;8.69;100.00
3206;BME280;1615;53.602;11.418;2023-12-20T10:35:52;99976.53;;;8.85;100.00
3206;BME280;1615;53.602;11.418;2023-12-20T10:38:17;99971.59;;;8.87;100.00
3206;BME280;1615;53.602;11.418;2023-12-20T10:40:47;99980.16;;;8.67;100.00
3206;BME280;1615;53.602;11.418;2023-12-20T10:43:12;100009.63;;;8.70;100.00
3206;BME280;1615;53.602;11.418;2023-12-20T10:45:38;99986.81;;;8.61;100.00
3206;BME280;1615;53.602;11.418;2023-12-20T10:48:04;99951.56;;;8.46;100.00
3206;BME280;1615;53.602;11.418;2023-12-20T10:50:30;99893.50;;;7.90;100.00
3206;BME280;1615;53.602;11.418;2023-12-20T10:52:57;99968.19;;;8.63;100.00
3206;BME280;1615;53.602;11.418;2023-12-20T10:55:23;99962.94;;;8.66;100.00
3206;BME280;1615;53.602;11.418;2023-12-20T10:57:51;99945.13;;;8.69;100.00
3206;BME280;1615;53.602;11.418;2023-12-20T11:00:18;99973.91;;;8.80;100.00
3206;BME280;1615;53.602;11.418;2023-12-20T11:02:44;99925.78;;;8.52;100.00
3206;BME280;1615;53.602;11.418;2023-12-20T11:05:19;99981.81;;;8.95;100.00
3206;BME280;1615;53.602;11.418;2023-12-20T11:07:51;99850.09;;;8.07;100.00
3206;BME280;1615;53.602;11.418;2023-12-20T11:10:24;99949.59;;;8.65;100.00
3206;BME280;1615;53.602;11.418;2023-12-20T11:12:54;99984.13;;;8.74;100.00
3206;BME280;1615;53.602;11.418;2023-12-20T11:15:22;99982.72;;;8.45;100.00
3206;BME280;1615;53.602;11.418;2023-12-20T11:17:54;99993.22;;;8.70;100.00
3206;BME280;1615;53.602;11.418;2023-12-20T11:20:23;99992.53;;;8.78;100.00
3206;BME280;1615;53.602;11.418;2023-12-20T11:22:55;99984.84;;;8.80;100.00
3206;BME280;1615;53.602;11.418;2023-12-20T11:25:21;99950.06;;;8.53;100.00
3206;BME280;1615;53.602;11.418;2023-12-20T11:28:07;99982.00;;;8.85;100.00
3206;BME280;1615;53.602;11.418;2023-12-20T11:30:46;99988.28;;;8.85;100.00
3206;BME280;1615;53.602;11.418;2023-12-20T11:33:15;99952.41;;;8.60;100.00
3206;BME280;1615;53.602;11.418;2023-12-20T11:35:42;99963.25;;;8.65;100.00
3206;BME280;1615;53.602;11.418;2023-12-20T11:38:09;99997.97;;;8.78;100.00
3206;BME280;1615;53.602;11.418;2023-12-20T11:40:35;99959.28;;;8.57;100.00
3206;BME280;1615;53.602;11.418;2023-12-20T11:43:00;99935.09;;;8.51;100.00
3206;BME280;1615;53.602;11.418;2023-12-20T11:45:25;99900.88;;;8.40;100.00
3206;BME280;1615;53.602;11.418;2023-12-20T11:47:52;99953.56;;;8.72;100.00
3206;BME280;1615;53.602;11.418;2023-12-20T11:50:21;99967.25;;;8.86;100.00
3206;BME280;1615;53.602;11.418;2023-12-20T11:52:48;99921.84;;;8.58;100.00
3206;BME280;1615;53.602;11.418;2023-12-20T11:55:13;99975.44;;;8.86;100.00
3206;BME280;1615;53.602;11.418;2023-12-20T11:57:39;99995.41;;;9.00;100.00
3206;BME280;1615;53.602;11.418;2023-12-20T12:00:05;99953.88;;;8.84;100.00
3206;BME280;1615;53.602;11.418;2023-12-20T12:02:31;99974.66;;;8.99;100.00
3206;BME280;1615;53.602;11.418;2023-12-20T12:04:57;99845.84;;;8.01;100.00
3206;BME280;1615;53.602;11.418;2023-12-20T12:07:24;99969.47;;;8.84;100.00
3206;BME280;1615;53.602;11.418;2023-12-20T12:09:49;99923.88;;;8.20;100.00
3206;BME280;1615;53.602;11.418;2023-12-20T12:12:15;99991.69;;;8.64;100.00
3206;BME280;1615;53.602;11.418;2023-12-20T12:14:40;99810.97;;;7.29;100.00
3206;BME280;1615;53.602;11.418;2023-12-20T12:17:13;99979.66;;;8.33;100.00
3206;BME280;1615;53.602;11.418;2023-12-20T12:19:39;99975.03;;;8.10;100.00
3206;BME280;1615;53.602;11.418;2023-12-20T12:22:09;99953.53;;;7.90;100.00
3206;BME280;1615;53.602;11.418;2023-12-20T12:24:38;99896.19;;;7.39;100.00
3206;BME280;1615;53.602;11.418;2023-12-20T12:27:06;99653.22;;;5.98;100.00
3206;BME280;1615;53.602;11.418;2023-12-20T12:29:32;99947.63;;;7.83;100.00
3206;BME280;1615;53.602;11.418;2023-12-20T12:31:57;99956.03;;;7.68;100.00
3206;BME280;1615;53.602;11.418;2023-12-20T12:34:23;99396.47;;;4.26;100.00
3206;BME280;1615;53.602;11.418;2023-12-20T12:36:49;99950.00;;;7.89;100.00
3206;BME280;1615;53.602;11.418;2023-12-20T12:39:15;99973.91;;;7.79;100.00
3206;BME280;1615;53.602;11.418;2023-12-20T12:41:40;99960.63;;;7.91;100.00
3206;BME280;1615;53.602;11.418;2023-12-20T12:44:06;99979.94;;;8.13;100.00
3206;BME280;1615;53.602;11.418;2023-12-20T12:46:31;99976.09;;;8.14;100.00
3206;BME280;1615;53.602;11.418;2023-12-20T12:48:58;99682.91;;;6.36;100.00
3206;BME280;1615;53.602;11.418;2023-12-20T12:51:23;99971.00;;;8.26;100.00
3206;BME280;1615;53.602;11.418;2023-12-20T12:53:48;99959.13;;;8.17;100.00
3206;BME280;1615;53.602;11.418;2023-12-20T12:56:13;99945.56;;;8.12;100.00